ROMMA est une association bénévole à but non lucratif. Votre soutien est indispensable : ADHERER à ROMMA ou FAIRE un DON

Val-d'Arly - (73, Savoie)

Beaufortain (2050 m)   Longitude: 06° 35' 21" E   Latitude: 45° 46' 53" N Station romma n°118
 

Détail journalier du     <<     >>

Température Precipitation Humidité Vent Dir Rafale Dir. rafale Ensol.
Heure (°C) (mm) (%) (km/h) (km/h) (min)
01:00 11.00667NO15NNO0
02:00 10.70676ONO15NNO0
03:00 10.40667OSO11O0
04:00 10.30666O11O0
05:00 9.90669NNO18NNO0
06:00 10.00658N15NNO0
07:00 9.10697NE13NNE0
08:00 9.606810E19E40
09:00 10.206116E24E60
10:00 10.505913NE23E60
11:00 11.305811ENE21E60
12:00 11.90557NE19NE50
13:00 12.70578NNE16NO0
14:00 13.80598NE18NE40
15:00 13.606012NE24NE20
16:00 13.505911NE26NE0
17:00 14.306012NE27NE30
18:00 13.805814NE27NNE60
19:00 13.206014NE24NNE60
20:00 11.607212N21NE30
21:00 11.20767NNE13N0
22:00 11.10729NE16E0
23:00 10.907315ESE18ESE0
minuit 10.807310SE18ESE0

Graphique du 18-07-2019

 

Serveur OMMA